Time;durP1;ratioP1;P1;durP2;ratioP2;P2;SDS_P1;SDS_P2;PMS_P1;PMS_P2;Temp;Humidity;BMP_temperature;BMP_pressure;BME280_temperature;BME280_humidity;BME280_pressure;Samples;Min_cycle;Max_cycle;Signal;HPM_P1;HPM_P2
2022/11/17 00:02:14;;;;;;;6.43;5.63;;;;;;;8.12;100.00;96433.75;5076532;28;20248;-71
2022/11/17 00:04:41;;;;;;;6.33;5.37;;;;;;;8.11;100.00;96426.84;5075301;28;20622;-71
2022/11/17 00:07:09;;;;;;;6.17;5.03;;;;;;;8.12;100.00;96418.81;5076723;28;20298;-71
2022/11/17 00:09:36;;;;;;;6.13;4.93;;;;;;;8.13;100.00;96415.22;5076495;28;20578;-71
2022/11/17 00:14:46;;;;;;;6.67;5.47;;;;;;;8.10;100.00;96401.50;5076528;28;20207;-70
2022/11/17 00:17:13;;;;;;;6.47;5.13;;;;;;;8.05;100.00;96395.78;5076437;28;20258;-70
2022/11/17 00:22:26;;;;;;;6.57;5.30;;;;;;;7.99;100.00;96393.69;5077310;28;20212;-71
2022/11/17 00:24:52;;;;;;;8.30;5.90;;;;;;;7.94;100.00;96386.19;5080208;28;20307;-72
2022/11/17 00:27:19;;;;;;;8.80;5.70;;;;;;;7.91;100.00;96378.56;5080111;28;20349;-71
2022/11/17 00:29:46;;;;;;;8.60;6.17;;;;;;;7.90;100.00;96376.09;5078595;28;20262;-70
2022/11/17 00:34:57;;;;;;;6.23;5.60;;;;;;;7.87;100.00;96400.00;5080333;28;20356;-71
2022/11/17 00:37:27;;;;;;;9.00;5.77;;;;;;;7.90;100.00;96397.13;5080005;28;20674;-71
2022/11/17 00:39:53;;;;;;;9.70;6.63;;;;;;;7.92;100.00;96403.09;5079990;28;20590;-71
2022/11/17 00:42:20;;;;;;;9.87;6.30;;;;;;;7.97;100.00;96398.25;5079998;28;20669;-70
2022/11/17 00:44:47;;;;;;;6.80;5.77;;;;;;;7.97;100.00;96385.94;5059951;28;20255;-71
2022/11/17 00:47:13;;;;;;;9.20;5.63;;;;;;;7.97;100.00;96383.28;5059904;28;20298;-71
2022/11/17 00:49:40;;;;;;;8.03;5.80;;;;;;;8.03;100.00;96393.28;5059851;28;20251;-71
2022/11/17 00:52:07;;;;;;;8.53;5.23;;;;;;;8.06;100.00;96387.78;5059841;28;20218;-71
2022/11/17 00:54:35;;;;;;;9.80;5.30;;;;;;;8.07;100.00;96385.97;5059830;28;20257;-71
2022/11/17 00:57:02;;;;;;;11.07;6.00;;;;;;;8.10;100.00;96377.81;5058040;28;20240;-71
2022/11/17 00:59:28;;;;;;;7.20;5.70;;;;;;;8.12;100.00;96375.88;5059773;28;20303;-70
2022/11/17 01:01:55;;;;;;;7.83;5.53;;;;;;;8.17;100.00;96368.41;5059695;28;20671;-70
2022/11/17 01:04:22;;;;;;;7.03;5.63;;;;;;;8.20;100.00;96362.94;5059511;28;20264;-70
2022/11/17 01:06:49;;;;;;;7.10;6.03;;;;;;;8.23;100.00;96352.13;5059436;28;20264;-70
2022/11/17 01:09:18;;;;;;;7.33;5.70;;;;;;;8.25;100.00;96347.56;5059399;28;20232;-70
2022/11/17 01:11:47;;;;;;;9.33;5.90;;;;;;;8.24;100.00;96344.09;5059382;28;20220;-70
2022/11/17 01:14:16;;;;;;;7.63;5.97;;;;;;;8.24;100.00;96338.00;5059244;28;20269;-70
2022/11/17 01:16:44;;;;;;;7.07;5.90;;;;;;;8.24;100.00;96333.56;5059262;28;20602;-70
2022/11/17 01:19:12;;;;;;;9.70;5.93;;;;;;;8.26;100.00;96333.44;5059244;28;20221;-70
2022/11/17 01:21:39;;;;;;;7.63;5.50;;;;;;;8.26;100.00;96336.09;5057462;28;20257;-71
2022/11/17 01:24:06;;;;;;;8.20;5.13;;;;;;;8.25;100.00;96326.50;5059237;28;20248;-70
2022/11/17 01:26:35;;;;;;;8.10;5.50;;;;;;;8.24;100.00;96316.94;5058974;28;20319;-70
2022/11/17 01:29:05;;;;;;;6.13;5.10;;;;;;;8.22;100.00;96313.63;5058898;28;20289;-70
2022/11/17 01:31:37;;;;;;;7.03;4.93;;;;;;;8.25;100.00;96315.97;5058888;28;20299;-70
2022/11/17 01:34:04;;;;;;;9.57;5.63;;;;;;;8.22;100.00;96309.22;5058649;28;20274;-70
2022/11/17 01:37:17;;;;;;;7.73;5.20;;;;;;;8.21;100.00;96299.63;5058802;28;20637;-70
2022/11/17 01:39:21;;;;;;;6.87;5.60;;;;;;;8.21;100.00;96285.66;5058872;28;20216;-70
2022/11/17 01:41:48;;;;;;;8.23;5.40;;;;;;;8.20;100.00;96297.16;5058746;28;20240;-70
2022/11/17 01:44:51;;;;;;;6.57;5.67;;;;;;;8.18;100.00;96296.41;5074382;28;20259;-70
2022/11/17 01:47:23;;;;;;;7.93;5.40;;;;;;;8.19;100.00;96290.16;5076814;28;20269;-70
2022/11/17 01:49:53;;;;;;;8.03;5.60;;;;;;;8.19;100.00;96288.41;5078837;28;20220;-69
2022/11/17 01:52:20;;;;;;;6.37;5.17;;;;;;;8.18;100.00;96276.19;5078498;28;20298;-70
2022/11/17 01:54:48;;;;;;;9.50;5.63;;;;;;;8.22;100.00;96288.16;5078433;28;20270;-72
2022/11/17 01:57:22;;;;;;;8.60;5.70;;;;;;;8.26;100.00;96275.56;5078391;28;20284;-71
2022/11/17 01:59:55;;;;;;;7.77;5.17;;;;;;;8.29;100.00;96267.38;5078264;28;20304;-72
2022/11/17 02:02:23;;;;;;;5.83;5.10;;;;;;;8.32;100.00;96267.13;5078337;28;20299;-71
2022/11/17 02:04:57;;;;;;;7.30;5.70;;;;;;;8.33;100.00;96263.50;5078457;28;20251;-70
2022/11/17 02:07:26;;;;;;;7.83;5.73;;;;;;;8.39;100.00;96257.69;5078313;28;20266;-70
2022/11/17 02:09:53;;;;;;;6.27;5.20;;;;;;;8.40;100.00;96243.56;5078075;28;20260;-70
2022/11/17 02:12:24;;;;;;;6.40;5.30;;;;;;;8.44;100.00;96239.69;5078155;28;20579;-71
2022/11/17 02:14:53;;;;;;;6.33;5.23;;;;;;;8.44;100.00;96222.09;5076446;28;20298;-71
2022/11/17 02:17:23;;;;;;;5.50;4.63;;;;;;;8.44;100.00;96219.44;5077993;28;20294;-71
2022/11/17 02:19:56;;;;;;;6.93;4.87;;;;;;;8.45;100.00;96225.56;5078052;28;20295;-70
2022/11/17 02:22:40;;;;;;;6.80;5.07;;;;;;;8.37;100.00;96217.50;5078011;28;20252;-71
2022/11/17 02:25:38;;;;;;;6.43;4.90;;;;;;;8.31;100.00;96200.47;5077963;28;20260;-71
2022/11/17 02:28:13;;;;;;;6.77;5.53;;;;;;;8.23;100.00;96204.78;5073668;28;20260;-71
2022/11/17 02:30:52;;;;;;;7.13;5.27;;;;;;;8.13;100.00;96203.91;5077964;28;20251;-71
2022/11/17 02:33:30;;;;;;;6.70;5.00;;;;;;;8.05;100.00;96201.13;5077798;28;20314;-70
2022/11/17 02:36:05;;;;;;;6.73;4.83;;;;;;;8.01;100.00;96194.47;5077682;28;20252;-72
2022/11/17 02:38:40;;;;;;;6.17;4.73;;;;;;;7.87;100.00;96182.56;5076686;28;20261;-70
2022/11/17 02:41:15;;;;;;;5.43;4.60;;;;;;;7.76;100.00;96185.31;5077531;28;20223;-70
2022/11/17 02:44:04;;;;;;;7.07;4.90;;;;;;;7.62;100.00;96179.63;5077536;28;20247;-71
2022/11/17 02:46:40;;;;;;;6.13;4.40;;;;;;;7.54;100.00;96163.69;5077574;28;20225;-71
2022/11/17 02:49:16;;;;;;;5.83;4.07;;;;;;;7.43;100.00;96141.00;5077469;28;20247;-71
2022/11/17 02:51:44;;;;;;;6.00;4.20;;;;;;;7.34;100.00;96138.34;5077358;28;20215;-71
2022/11/17 02:54:12;;;;;;;5.80;4.43;;;;;;;7.22;100.00;96132.34;5077302;28;20318;-70
2022/11/17 02:56:41;;;;;;;8.27;4.70;;;;;;;7.13;100.00;96147.25;5077364;28;20255;-70
2022/11/17 02:59:12;;;;;;;5.90;4.17;;;;;;;7.16;100.00;96157.50;5077414;28;20246;-71
2022/11/17 03:02:03;;;;;;;5.80;4.50;;;;;;;7.20;100.00;96151.84;5077255;28;20264;-70
2022/11/17 03:04:40;;;;;;;7.73;4.90;;;;;;;7.22;100.00;96134.97;5075494;28;20621;-70
2022/11/17 03:07:30;;;;;;;6.03;5.20;;;;;;;7.22;100.00;96142.06;5077356;28;20568;-70
2022/11/17 03:10:08;;;;;;;8.70;5.40;;;;;;;7.28;100.00;96146.78;5077273;28;20525;-71
2022/11/17 03:12:46;;;;;;;6.87;5.53;;;;;;;7.45;100.00;96153.97;5077112;28;20257;-70
2022/11/17 03:15:28;;;;;;;7.07;5.57;;;;;;;7.62;100.00;96171.72;5077192;28;20281;-71
2022/11/17 03:18:03;;;;;;;9.00;6.07;;;;;;;7.78;100.00;96175.50;5077057;28;20297;-71
2022/11/17 03:20:39;;;;;;;7.77;5.80;;;;;;;7.89;100.00;96180.63;5077114;28;20781;-70
2022/11/17 03:23:11;;;;;;;6.50;5.17;;;;;;;7.95;100.00;96179.28;5076985;28;20216;-70
2022/11/17 03:25:41;;;;;;;7.67;5.30;;;;;;;8.02;100.00;96168.03;5077049;28;20297;-70
2022/11/17 03:28:10;;;;;;;7.67;5.27;;;;;;;8.11;100.00;96158.50;5077036;28;20594;-70
2022/11/17 03:30:43;;;;;;;5.87;4.30;;;;;;;8.22;100.00;96155.75;5075175;28;20304;-70
2022/11/17 03:33:14;;;;;;;6.07;4.20;;;;;;;8.25;100.00;96165.97;5076890;28;20273;-70
2022/11/17 03:35:45;;;;;;;5.83;4.17;;;;;;;8.27;100.00;96158.81;5077090;28;20216;-70
2022/11/17 03:38:15;;;;;;;6.13;4.33;;;;;;;8.33;100.00;96142.44;5077028;28;20261;-70
2022/11/17 03:40:46;;;;;;;5.87;4.50;;;;;;;8.35;100.00;96129.97;5076892;28;20674;-70
2022/11/17 03:43:15;;;;;;;5.40;4.10;;;;;;;8.32;100.00;96117.13;5076783;28;20306;-70
2022/11/17 03:45:47;;;;;;;4.53;4.10;;;;;;;8.29;100.00;96118.22;5076888;28;20263;-70
2022/11/17 03:48:20;;;;;;;5.37;4.40;;;;;;;8.27;100.00;96133.28;5076857;28;20252;-70
2022/11/17 03:50:54;;;;;;;5.73;4.23;;;;;;;8.29;100.00;96133.16;5076830;28;20260;-71
2022/11/17 03:53:21;;;;;;;5.60;4.43;;;;;;;8.29;100.00;96120.00;5076843;28;20273;-72
2022/11/17 03:55:55;;;;;;;5.10;4.30;;;;;;;8.30;100.00;96133.03;5075961;28;20287;-71
2022/11/17 03:58:27;;;;;;;5.60;4.03;;;;;;;8.29;100.00;96141.06;5078788;28;20259;-70
2022/11/17 04:00:58;;;;;;;5.07;4.20;;;;;;;8.34;100.00;96138.84;5080811;28;20666;-71
2022/11/17 04:03:29;;;;;;;5.97;4.53;;;;;;;8.31;100.00;96144.38;5080840;28;20252;-71
2022/11/17 04:05:56;;;;;;;5.70;4.50;;;;;;;8.32;100.00;96130.28;5080658;28;20247;-71
2022/11/17 04:08:24;;;;;;;6.97;4.40;;;;;;;8.37;100.00;96133.28;5080553;28;20255;-69
2022/11/17 04:16:20;;;;;;;4.80;3.90;;;;;;;8.46;100.00;96135.91;5080541;28;20234;-70
2022/11/17 04:18:47;;;;;;;4.70;4.17;;;;;;;8.48;100.00;96135.75;5080447;28;20256;-72
2022/11/17 04:21:14;;;;;;;4.90;3.90;;;;;;;8.49;100.00;96132.16;5080238;28;20647;-70
2022/11/17 04:23:40;;;;;;;5.10;4.00;;;;;;;8.50;100.00;96126.75;5078556;28;20248;-70
2022/11/17 04:28:51;;;;;;;4.87;3.80;;;;;;;8.52;100.00;96137.16;5080240;28;20208;-69
2022/11/17 04:31:19;;;;;;;4.53;3.60;;;;;;;8.53;100.00;96129.13;5080107;28;20274;-70
2022/11/17 04:33:49;;;;;;;5.07;3.70;;;;;;;8.55;100.00;96127.16;5079892;28;20272;-71
2022/11/17 04:36:17;;;;;;;4.23;3.60;;;;;;;8.59;100.00;96123.28;5080001;28;20263;-71
2022/11/17 04:38:46;;;;;;;4.87;3.97;;;;;;;8.62;100.00;96123.00;5080025;28;20255;-72
2022/11/17 04:43:59;;;;;;;3.67;2.87;;;;;;;8.66;100.00;96123.53;5079939;28;20212;-71
2022/11/17 04:46:27;;;;;;;3.67;3.30;;;;;;;8.70;100.00;96124.91;5079904;28;20252;-70
2022/11/17 04:48:57;;;;;;;4.23;3.33;;;;;;;8.70;100.00;96115.19;5077999;28;20253;-70
2022/11/17 04:51:25;;;;;;;3.43;3.13;;;;;;;8.73;100.00;96120.19;5079735;28;20261;-70
2022/11/17 04:53:52;;;;;;;5.17;3.50;;;;;;;8.76;100.00;96122.53;5079716;28;20271;-70
2022/11/17 04:56:20;;;;;;;4.23;3.07;;;;;;;8.79;100.00;96124.03;5079582;28;20283;-70
2022/11/17 04:58:47;;;;;;;4.10;3.10;;;;;;;8.81;100.00;96124.75;5079778;28;20252;-71
2022/11/17 05:01:16;;;;;;;3.33;2.77;;;;;;;8.85;100.00;96126.94;5079656;28;20542;-69
2022/11/17 05:03:44;;;;;;;3.37;3.07;;;;;;;8.83;100.00;96123.63;5079583;28;20217;-70
2022/11/17 05:06:14;;;;;;;5.83;3.20;;;;;;;8.84;100.00;96129.72;5079501;28;20307;-70
2022/11/17 05:08:42;;;;;;;3.37;3.07;;;;;;;8.85;100.00;96118.19;5078836;28;20283;-70
2022/11/17 05:13:54;;;;;;;3.87;2.90;;;;;;;8.88;100.00;96129.28;5077817;28;20234;-71
2022/11/17 05:19:08;;;;;;;3.40;2.90;;;;;;;8.86;100.00;96133.88;5079481;28;20584;-71
2022/11/17 05:21:36;;;;;;;3.30;3.00;;;;;;;8.89;100.00;96135.38;5079245;28;20264;-71
2022/11/17 05:24:02;;;;;;;3.50;3.20;;;;;;;8.87;100.00;96134.72;5079221;28;20253;-71
2022/11/17 05:26:30;;;;;;;4.80;3.30;;;;;;;8.80;100.00;96128.31;5079248;28;20225;-71
2022/11/17 05:29:00;;;;;;;3.97;3.27;;;;;;;8.69;100.00;96137.25;5079165;28;20283;-71
2022/11/17 05:31:28;;;;;;;3.50;3.20;;;;;;;8.64;100.00;96133.38;5079133;28;20590;-71
2022/11/17 05:33:55;;;;;;;3.30;2.80;;;;;;;8.53;100.00;96133.53;5078994;28;20672;-72
2022/11/17 05:36:23;;;;;;;4.47;3.70;;;;;;;8.46;100.00;96135.09;5079112;28;20258;-72
2022/11/17 05:38:51;;;;;;;4.37;3.60;;;;;;;8.48;100.00;96135.75;5078556;28;20562;-70
2022/11/17 05:41:18;;;;;;;3.57;3.27;;;;;;;8.51;100.00;96135.50;5077926;28;20261;-72
2022/11/17 05:43:45;;;;;;;4.07;3.23;;;;;;;8.57;100.00;96142.81;5078899;28;20217;-72
2022/11/17 05:46:12;;;;;;;3.80;3.40;;;;;;;8.65;100.00;96150.84;5078902;28;20526;-71
2022/11/17 05:48:40;;;;;;;4.37;3.03;;;;;;;8.70;100.00;96144.16;5078708;28;20266;-71
2022/11/17 05:51:06;;;;;;;3.83;3.10;;;;;;;8.79;100.00;96142.47;5078641;28;20251;-71
2022/11/17 05:53:33;;;;;;;4.07;3.00;;;;;;;8.86;100.00;96143.56;5078515;28;20242;-71
2022/11/17 05:56:24;;;;;;;4.00;3.53;;;;;;;8.90;100.00;96150.22;5078459;28;20278;-70
2022/11/17 05:58:55;;;;;;;4.07;3.33;;;;;;;8.94;100.00;96143.69;5078576;28;20588;-71
2022/11/17 06:01:22;;;;;;;3.97;3.30;;;;;;;8.93;100.00;96128.88;5078468;28;20256;-71
2022/11/17 06:03:53;;;;;;;3.73;3.23;;;;;;;8.91;100.00;96133.44;5078440;28;20659;-71
2022/11/17 06:06:20;;;;;;;4.03;3.63;;;;;;;8.93;100.00;96134.94;5076614;28;20270;-71
2022/11/17 06:08:47;;;;;;;4.17;2.93;;;;;;;8.95;100.00;96143.56;5078384;28;20256;-70
2022/11/17 06:11:16;;;;;;;4.00;3.13;;;;;;;9.01;100.00;96148.22;5078407;28;20267;-70
2022/11/17 06:13:42;;;;;;;3.27;2.87;;;;;;;9.05;100.00;96146.16;5078082;28;20663;-70
2022/11/17 06:16:12;;;;;;;3.63;3.00;;;;;;;9.05;100.00;96143.53;5078255;28;20306;-71
2022/11/17 06:18:41;;;;;;;3.60;3.10;;;;;;;9.11;100.00;96140.31;5078182;28;20589;-70
2022/11/17 06:21:10;;;;;;;5.37;3.07;;;;;;;9.15;100.00;96142.50;5077172;28;20277;-70
2022/11/17 06:23:37;;;;;;;3.10;2.80;;;;;;;9.19;100.00;96135.13;5078215;28;20219;-70
2022/11/17 06:26:08;;;;;;;3.77;3.00;;;;;;;9.21;100.00;96135.78;5077971;28;20221;-70
2022/11/17 06:28:39;;;;;;;3.77;3.07;;;;;;;9.24;100.00;96130.25;5078164;28;20302;-70
2022/11/17 06:31:07;;;;;;;3.50;3.00;;;;;;;9.21;100.00;96130.53;5076123;28;20253;-70
2022/11/17 06:33:35;;;;;;;4.40;3.07;;;;;;;9.19;100.00;96127.22;5077643;28;20247;-70
2022/11/17 06:36:05;;;;;;;3.43;3.00;;;;;;;9.20;100.00;96135.00;5077844;28;20660;-70
2022/11/17 06:38:33;;;;;;;3.40;2.87;;;;;;;9.18;100.00;96142.19;5077775;28;20254;-69
2022/11/17 06:40:59;;;;;;;5.60;3.13;;;;;;;9.13;100.00;96148.88;5077650;28;20222;-69
2022/11/17 06:43:26;;;;;;;4.03;3.00;;;;;;;8.93;100.00;96147.31;5077523;28;20250;-72
2022/11/17 06:45:54;;;;;;;2.90;2.63;;;;;;;8.83;100.00;96157.03;5077566;28;20569;-71
2022/11/17 06:48:26;;;;;;;3.47;2.97;;;;;;;8.71;100.00;96166.06;5078000;28;20577;-71
2022/11/17 06:50:53;;;;;;;3.47;2.80;;;;;;;8.62;100.00;96177.47;5077633;28;20221;-71
2022/11/17 06:53:21;;;;;;;3.93;2.90;;;;;;;8.67;100.00;96169.94;5077505;28;20331;-71
2022/11/17 06:55:49;;;;;;;3.57;3.10;;;;;;;8.77;100.00;96157.59;5077208;28;20247;-71
2022/11/17 06:58:16;;;;;;;3.57;3.20;;;;;;;8.82;100.00;96155.38;5075632;28;20221;-71
2022/11/17 07:00:43;;;;;;;4.03;2.83;;;;;;;8.97;100.00;96154.78;5077276;28;20658;-71
2022/11/17 07:03:11;;;;;;;5.13;2.70;;;;;;;9.05;100.00;96140.88;5077261;28;20258;-71
2022/11/17 07:05:38;;;;;;;3.83;2.97;;;;;;;9.05;100.00;96143.53;5077215;28;20554;-71
2022/11/17 07:08:07;;;;;;;3.63;2.87;;;;;;;9.09;100.00;96144.88;5077163;28;20254;-71
2022/11/17 07:10:35;;;;;;;3.20;2.90;;;;;;;9.09;100.00;96143.06;5077117;28;20533;-71
2022/11/17 07:13:02;;;;;;;4.03;3.17;;;;;;;9.18;100.00;96136.91;5077107;28;20258;-69
2022/11/17 07:15:29;;;;;;;3.63;3.10;;;;;;;9.27;100.00;96125.50;5077037;28;20540;-69
2022/11/17 07:17:56;;;;;;;3.13;2.43;;;;;;;9.33;100.00;96124.09;5077007;28;20242;-70
2022/11/17 07:20:24;;;;;;;3.17;2.77;;;;;;;9.31;100.00;96144.50;5076911;28;20227;-70
2022/11/17 07:22:51;;;;;;;3.63;2.73;;;;;;;9.35;100.00;96151.13;5075218;28;20252;-70
2022/11/17 07:25:18;;;;;;;7.77;3.40;;;;;;;9.31;100.00;96147.13;5076832;28;20249;-70
2022/11/17 07:27:44;;;;;;;6.17;3.60;;;;;;;9.34;100.00;96142.41;5076963;28;20265;-69
2022/11/17 07:30:12;;;;;;;4.60;3.43;;;;;;;9.46;100.00;96133.31;5077106;28;20260;-69
2022/11/17 07:32:38;;;;;;;4.10;3.07;;;;;;;9.50;100.00;96128.56;5076686;28;20252;-70
2022/11/17 07:35:06;;;;;;;5.70;3.37;;;;;;;9.58;100.00;96132.13;5076846;28;20275;-71
2022/11/17 07:37:34;;;;;;;4.13;3.00;;;;;;;9.70;100.00;96132.75;5076827;28;20260;-70
2022/11/17 07:40:01;;;;;;;3.57;2.70;;;;;;;9.78;100.00;96125.75;5076788;28;20266;-70
2022/11/17 07:42:27;;;;;;;5.30;2.90;;;;;;;9.84;100.00;96135.69;5076822;28;20618;-70
2022/11/17 07:44:54;;;;;;;3.77;3.10;;;;;;;9.89;100.00;96122.06;5076776;28;20263;-70
2022/11/17 07:47:21;;;;;;;4.33;2.43;;;;;;;10.00;100.00;96124.47;5076912;28;20301;-70
2022/11/17 07:49:47;;;;;;;2.93;2.63;;;;;;;10.04;100.00;96131.97;5075194;28;20587;-69
2022/11/17 07:52:14;;;;;;;2.93;2.00;;;;;;;9.95;100.00;96132.84;5076683;28;20258;-70
2022/11/17 07:54:42;;;;;;;2.77;2.20;;;;;;;9.87;100.00;96135.41;5076740;28;20270;-70
2022/11/17 07:57:09;;;;;;;2.40;2.20;;;;;;;9.93;100.00;96133.97;5076710;28;20278;-69
2022/11/17 07:59:35;;;;;;;2.90;2.17;;;;;;;10.05;100.00;96136.28;5076823;28;20258;-69
2022/11/17 08:02:02;;;;;;;2.10;1.90;;;;;;;10.18;100.00;96133.25;5076743;28;20305;-69
2022/11/17 08:04:28;;;;;;;2.87;1.90;;;;;;;10.25;100.00;96129.00;5076648;28;20631;-69
2022/11/17 08:06:55;;;;;;;3.07;2.27;;;;;;;10.32;100.00;96130.91;5076626;28;20256;-71
2022/11/17 08:09:22;;;;;;;3.00;2.33;;;;;;;10.35;100.00;96124.47;5076635;28;20256;-71
2022/11/17 08:11:50;;;;;;;2.67;1.80;;;;;;;10.35;100.00;96125.28;5076588;28;20258;-69
2022/11/17 08:14:17;;;;;;;2.33;1.80;;;;;;;10.33;100.00;96134.38;5074665;28;20236;-70
2022/11/17 08:16:43;;;;;;;4.50;2.40;;;;;;;10.32;100.00;96137.97;5076451;28;20262;-71
2022/11/17 08:19:10;;;;;;;2.50;2.10;;;;;;;10.34;100.00;96141.31;5076465;28;20251;-72
2022/11/17 08:21:37;;;;;;;2.40;1.73;;;;;;;10.38;100.00;96138.22;5076495;28;20266;-71
2022/11/17 08:24:04;;;;;;;2.83;1.83;;;;;;;10.50;100.00;96138.78;5076419;28;20259;-71
2022/11/17 08:26:31;;;;;;;3.83;1.77;;;;;;;10.56;100.00;96131.09;5076580;28;20602;-71
2022/11/17 08:29:00;;;;;;;2.37;1.57;;;;;;;10.62;100.00;96122.53;5076258;28;20263;-72
2022/11/17 08:31:27;;;;;;;4.27;1.57;;;;;;;10.64;100.00;96132.97;5076363;28;20217;-71
2022/11/17 08:33:54;;;;;;;2.70;1.30;;;;;;;10.68;100.00;96121.09;5076402;28;20575;-71
2022/11/17 08:36:21;;;;;;;1.63;1.10;;;;;;;10.66;100.00;96112.50;5076273;28;20236;-70
2022/11/17 08:38:47;;;;;;;3.90;1.03;;;;;;;10.70;100.00;96116.50;5076311;28;20330;-69
2022/11/17 08:41:14;;;;;;;1.90;1.00;;;;;;;10.76;100.00;96115.88;5074615;28;20220;-70
2022/11/17 08:43:41;;;;;;;2.83;0.97;;;;;;;10.83;100.00;96108.97;5077398;28;20263;-69
2022/11/17 08:46:12;;;;;;;1.83;0.83;;;;;;;10.86;100.00;96103.38;5078652;28;20258;-70
2022/11/17 08:48:39;;;;;;;2.87;0.70;;;;;;;10.91;100.00;96115.13;5076920;28;20380;-70
2022/11/17 08:51:07;;;;;;;1.63;0.60;;;;;;;10.98;100.00;96107.41;5078862;28;20215;-70
2022/11/17 08:53:34;;;;;;;1.63;0.77;;;;;;;10.90;100.00;96120.56;5078704;28;20257;-69
2022/11/17 08:56:01;;;;;;;1.43;0.70;;;;;;;10.81;100.00;96124.97;5076736;28;20278;-69
2022/11/17 08:58:27;;;;;;;2.37;0.80;;;;;;;10.65;100.00;96121.41;5067908;28;20307;-68
2022/11/17 09:00:54;;;;;;;1.33;0.60;;;;;;;10.54;100.00;96130.41;5078307;28;20259;-69
2022/11/17 09:03:22;;;;;;;1.70;0.90;;;;;;;10.49;100.00;96127.41;5077650;28;20258;-68
2022/11/17 09:05:49;;;;;;;1.80;0.70;;;;;;;10.39;100.00;96125.84;5076503;28;20654;-70
2022/11/17 09:08:15;;;;;;;1.63;0.80;;;;;;;10.41;100.00;96131.78;5078395;28;20624;-68
2022/11/17 09:10:42;;;;;;;2.50;0.70;;;;;;;10.46;100.00;96145.38;5077441;28;20265;-70
2022/11/17 09:13:09;;;;;;;1.57;0.70;;;;;;;10.60;100.00;96150.09;5078369;28;20251;-69
2022/11/17 09:15:35;;;;;;;1.77;0.70;;;;;;;10.74;100.00;96162.72;5078342;28;20272;-69
2022/11/17 09:18:02;;;;;;;3.27;1.07;;;;;;;10.91;100.00;96151.28;5077261;28;20258;-70
2022/11/17 09:20:30;;;;;;;0.93;0.60;;;;;;;11.02;100.00;96159.78;5078420;28;20279;-68
2022/11/17 09:22:59;;;;;;;0.90;0.60;;;;;;;11.07;100.00;96136.34;5078260;28;20214;-69
2022/11/17 09:25:26;;;;;;;1.30;0.63;;;;;;;11.24;100.00;96140.75;5077473;28;20225;-68
2022/11/17 09:27:53;;;;;;;1.50;0.77;;;;;;;11.44;100.00;96141.34;5078252;28;20252;-69
2022/11/17 09:30:21;;;;;;;3.07;0.60;;;;;;;11.56;100.00;96140.88;5078197;28;20525;-69
2022/11/17 09:32:47;;;;;;;1.23;0.60;;;;;;;11.64;100.00;96126.88;5075875;28;20228;-68
2022/11/17 09:35:14;;;;;;;0.53;0.40;;;;;;;11.71;100.00;96134.03;5077924;28;20292;-68
2022/11/17 09:37:42;;;;;;;2.37;0.60;;;;;;;11.75;100.00;96126.59;5077930;28;20257;-67
2022/11/17 09:40:13;;;;;;;0.70;0.50;;;;;;;11.72;100.00;96140.13;5077633;28;20476;-68
2022/11/17 09:42:40;;;;;;;0.93;0.50;;;;;;;11.75;100.00;96137.16;5078928;28;20222;-68
2022/11/17 09:45:14;;;;;;;2.00;0.53;;;;;;;11.80;100.00;96137.53;5079050;28;20574;-68
2022/11/17 09:47:46;;;;;;;1.83;0.70;;;;;;;11.89;100.00;96157.72;5078818;28;20264;-68
2022/11/17 09:50:21;;;;;;;1.30;0.53;;;;;;;11.91;100.00;96142.47;5078703;28;20254;-69
2022/11/17 09:52:58;;;;;;;1.57;0.77;;;;;;;11.79;100.00;96136.69;5078732;28;20622;-69
2022/11/17 09:55:29;;;;;;;0.83;0.60;;;;;;;11.73;100.00;96147.09;5078310;28;20676;-69
2022/11/17 09:58:04;;;;;;;0.63;0.50;;;;;;;11.74;100.00;96132.88;5076716;28;20251;-68
2022/11/17 10:00:33;;;;;;;1.10;0.50;;;;;;;11.80;100.00;96134.88;5078541;28;20241;-68
2022/11/17 10:03:01;;;;;;;0.93;0.57;;;;;;;11.88;100.00;96142.81;5078413;28;20216;-68
2022/11/17 10:05:30;;;;;;;1.40;0.57;;;;;;;11.81;100.00;96144.47;5078341;28;20218;-68
2022/11/17 10:08:02;;;;;;;2.07;0.70;;;;;;;11.73;100.00;96155.03;5078215;28;20257;-68
2022/11/17 10:10:37;;;;;;;3.30;0.90;;;;;;;11.84;100.00;96144.97;5078314;28;20216;-69
2022/11/17 10:13:09;;;;;;;3.67;0.80;;;;;;;11.99;99.37;96137.22;5078259;28;20301;-68
2022/11/17 10:15:44;;;;;;;3.27;0.60;;;;;;;12.12;97.61;96119.88;5078043;28;20274;-68
2022/11/17 10:18:13;;;;;;;2.90;0.60;;;;;;;12.36;96.37;96119.06;5078133;28;20590;-68
2022/11/17 10:20:40;;;;;;;2.37;1.17;;;;;;;12.41;95.54;96116.75;5078187;28;20249;-68
2022/11/17 10:23:13;;;;;;;2.87;1.27;;;;;;;12.41;93.35;96106.16;5077971;28;20256;-68
2022/11/17 10:25:42;;;;;;;2.67;0.90;;;;;;;12.67;93.63;96112.09;5076819;28;20212;-68
2022/11/17 10:28:23;;;;;;;1.80;0.80;;;;;;;13.03;93.19;96110.72;5078098;28;20254;-68
2022/11/17 10:30:53;;;;;;;3.93;0.80;;;;;;;13.20;87.64;96064.59;5077848;28;20297;-68
2022/11/17 10:33:33;;;;;;;5.10;1.50;;;;;;;13.30;85.09;96055.44;5077938;28;20215;-68
2022/11/17 10:35:59;;;;;;;2.53;1.10;;;;;;;13.43;84.55;96062.81;5077853;28;20269;-68
2022/11/17 10:38:29;;;;;;;2.17;0.87;;;;;;;13.54;85.79;96083.66;5077627;28;20282;-68
2022/11/17 10:40:59;;;;;;;2.07;0.73;;;;;;;13.48;83.30;96049.84;5077651;28;20226;-68
2022/11/17 10:43:28;;;;;;;3.00;0.70;;;;;;;13.45;81.30;96045.72;5077505;28;20222;-68
2022/11/17 10:45:58;;;;;;;3.83;1.00;;;;;;;13.37;80.76;96036.97;5077583;28;20309;-69
2022/11/17 10:48:28;;;;;;;3.03;1.03;;;;;;;13.24;83.19;96063.25;5077581;28;20259;-68
2022/11/17 10:50:57;;;;;;;1.57;0.87;;;;;;;13.13;81.43;96047.69;5075733;28;20322;-68
2022/11/17 10:53:28;;;;;;;2.27;0.90;;;;;;;13.18;83.11;96079.84;5077500;28;20618;-68
2022/11/17 10:55:58;;;;;;;3.17;0.80;;;;;;;13.27;83.97;96090.25;5077243;28;20279;-69
2022/11/17 10:58:26;;;;;;;1.40;0.70;;;;;;;13.27;83.28;96081.47;5077459;28;20569;-68
2022/11/17 11:00:55;;;;;;;2.40;0.80;;;;;;;13.34;83.17;96085.09;5077329;28;20288;-68
2022/11/17 11:03:25;;;;;;;1.70;0.80;;;;;;;13.28;81.46;96059.25;5077300;28;20219;-68
2022/11/17 11:05:56;;;;;;;2.30;0.80;;;;;;;13.26;82.44;96077.97;5076748;28;20247;-69
2022/11/17 11:08:27;;;;;;;3.57;1.07;;;;;;;13.24;83.81;96076.50;5077241;28;20250;-68
2022/11/17 11:10:58;;;;;;;1.43;0.63;;;;;;;13.29;85.81;96098.03;5077137;28;20257;-68
2022/11/17 11:13:32;;;;;;;2.00;0.80;;;;;;;13.40;85.61;96095.00;5077231;28;20574;-68
2022/11/17 11:15:58;;;;;;;5.83;0.80;;;;;;;13.19;82.30;96065.56;5075347;28;20362;-68
2022/11/17 11:18:28;;;;;;;2.67;0.93;;;;;;;12.88;82.22;96064.66;5076989;28;20591;-68
2022/11/17 11:21:04;;;;;;;1.67;0.70;;;;;;;12.78;84.65;96093.19;5077083;28;20216;-68
2022/11/17 11:23:41;;;;;;;4.97;0.87;;;;;;;12.74;81.85;96065.34;5077155;28;20257;-68
2022/11/17 11:26:19;;;;;;;2.40;0.70;;;;;;;12.69;85.08;96088.88;5077114;28;20245;-68
2022/11/17 11:28:58;;;;;;;2.70;0.77;;;;;;;12.63;83.97;96074.50;5076993;28;20637;-68
2022/11/17 11:31:32;;;;;;;2.73;0.93;;;;;;;12.62;86.05;96083.44;5077134;28;20219;-69
2022/11/17 11:34:10;;;;;;;2.27;0.80;;;;;;;12.70;86.20;96095.84;5076765;28;20225;-68
2022/11/17 11:36:43;;;;;;;3.03;1.10;;;;;;;12.76;83.42;96073.97;5076747;28;20245;-68
2022/11/17 11:39:27;;;;;;;2.73;0.90;;;;;;;12.73;83.39;96067.19;5076807;28;20281;-68
2022/11/17 11:42:15;;;;;;;1.97;0.60;;;;;;;12.73;82.86;96074.31;5075146;28;20218;-68
2022/11/17 11:45:02;;;;;;;2.00;0.70;;;;;;;12.78;82.35;96078.09;5076753;28;20259;-69
2022/11/17 11:47:47;;;;;;;1.50;0.60;;;;;;;12.90;79.29;96054.72;5076830;28;20542;-68
2022/11/17 11:50:20;;;;;;;1.20;0.63;;;;;;;13.08;77.82;96042.91;5076756;28;20254;-68
2022/11/17 11:52:51;;;;;;;0.90;0.63;;;;;;;13.16;75.61;96027.00;5076643;28;20253;-68
2022/11/17 11:55:22;;;;;;;1.37;0.70;;;;;;;13.34;76.26;96037.34;5076507;28;20338;-68
2022/11/17 11:57:55;;;;;;;1.00;0.43;;;;;;;13.46;77.09;96057.19;5073162;28;20258;-68
2022/11/17 12:00:22;;;;;;;2.67;0.63;;;;;;;13.55;79.44;96082.66;5055780;28;20254;-68
2022/11/17 12:02:54;;;;;;;3.20;0.90;;;;;;;13.46;79.21;96073.09;5070712;28;20255;-69
2022/11/17 12:05:28;;;;;;;1.77;1.07;;;;;;;13.27;80.35;96084.13;5076420;28;20251;-69
2022/11/17 12:08:04;;;;;;;1.63;0.60;;;;;;;13.02;83.72;96109.09;5074561;28;20258;-69
2022/11/17 12:10:36;;;;;;;2.07;1.00;;;;;;;12.88;83.28;96105.25;5076512;28;20574;-69